Time;durP1;ratioP1;P1;durP2;ratioP2;P2;SDS_P1;SDS_P2;PMS_P1;PMS_P2;Temp;Humidity;BMP_temperature;BMP_pressure;BME280_temperature;BME280_humidity;BME280_pressure;Samples;Min_cycle;Max_cycle;Signal;HPM_P1;HPM_P2
2024/02/10 00:02:16;;;;;;;5.78;1.70;;;;;;;;;;5094103;28;20067;-41
2024/02/10 00:04:44;;;;;;;6.30;1.83;;;;;;;;;;5103674;28;20497;-40
2024/02/10 00:07:12;;;;;;;9.30;2.08;;;;;;;;;;5097389;28;20039;-40
2024/02/10 00:09:41;;;;;;;4.28;1.70;;;;;;;;;;5089618;28;20028;-41
2024/02/10 00:12:09;;;;;;;4.82;1.70;;;;;;;;;;5097068;28;20108;-41
2024/02/10 00:14:36;;;;;;;7.72;1.45;;;;;;;;;;5097577;28;20031;-41
2024/02/10 00:17:09;;;;;;;10.32;1.55;;;;;;;;;;5094008;28;20487;-42
2024/02/10 00:19:46;;;;;;;7.82;1.90;;;;;;;;;;5098028;28;20067;-40
2024/02/10 00:22:13;;;;;;;8.77;2.97;;;;;;;;;;5094868;28;20028;-41
2024/02/10 00:24:40;;;;;;;9.52;2.67;;;;;;;;;;5096619;28;20086;-40
2024/02/10 00:27:08;;;;;;;19.02;2.83;;;;;;;;;;5096985;28;20024;-40
2024/02/10 00:29:37;;;;;;;8.93;2.17;;;;;;;;;;5099810;28;20450;-41
2024/02/10 00:32:09;;;;;;;7.97;2.17;;;;;;;;;;5096028;28;20084;-40
2024/02/10 00:34:39;;;;;;;8.23;2.03;;;;;;;;;;5098396;28;20043;-41
2024/02/10 00:37:07;;;;;;;15.00;2.50;;;;;;;;;;5097223;28;20067;-41
2024/02/10 00:39:34;;;;;;;12.95;2.10;;;;;;;;;;5099074;28;20062;-40
2024/02/10 00:42:01;;;;;;;9.88;1.95;;;;;;;;;;5097160;28;20046;-41
2024/02/10 00:44:31;;;;;;;11.60;2.17;;;;;;;;;;5098443;28;20024;-40
2024/02/10 00:47:09;;;;;;;10.35;2.10;;;;;;;;;;5096308;28;20183;-41
2024/02/10 00:49:36;;;;;;;5.07;1.92;;;;;;;;;;5107550;28;20485;-40
2024/02/10 00:52:08;;;;;;;9.35;2.10;;;;;;;;;;5098493;28;20036;-41
2024/02/10 00:54:39;;;;;;;4.72;1.70;;;;;;;;;;5102217;28;20036;-40
2024/02/10 00:57:12;;;;;;;10.77;2.25;;;;;;;;;;5095089;28;20051;-39
2024/02/10 00:59:44;;;;;;;7.32;2.08;;;;;;;;;;5109075;28;20053;-39
2024/02/10 01:02:17;;;;;;;7.78;2.92;;;;;;;;;;5096761;28;20179;-39
2024/02/10 01:04:45;;;;;;;8.25;2.60;;;;;;;;;;5101770;28;20389;-39
2024/02/10 01:07:14;;;;;;;14.85;3.28;;;;;;;;;;5107481;28;20031;-39
2024/02/10 01:09:47;;;;;;;10.18;2.70;;;;;;;;;;5098031;28;20032;-39
2024/02/10 01:12:14;;;;;;;5.68;2.45;;;;;;;;;;5103478;28;20558;-39
2024/02/10 01:14:41;;;;;;;11.43;2.67;;;;;;;;;;5104751;28;20039;-39
2024/02/10 01:17:13;;;;;;;5.22;2.00;;;;;;;;;;5111421;28;20028;-41
2024/02/10 01:19:50;;;;;;;4.28;2.10;;;;;;;;;;5102931;28;20087;-39
2024/02/10 01:22:17;;;;;;;7.60;2.00;;;;;;;;;;5105510;28;20030;-38
2024/02/10 01:24:48;;;;;;;5.13;2.05;;;;;;;;;;5098423;28;20102;-38
2024/02/10 01:27:16;;;;;;;11.30;2.03;;;;;;;;;;5112579;28;20040;-38
2024/02/10 01:29:50;;;;;;;5.18;1.90;;;;;;;;;;5106730;28;20505;-38
2024/02/10 01:32:20;;;;;;;11.50;1.92;;;;;;;;;;5102858;28;20050;-39
2024/02/10 01:34:48;;;;;;;5.75;1.98;;;;;;;;;;5107562;28;20035;-39
2024/02/10 01:37:18;;;;;;;5.07;2.10;;;;;;;;;;5107595;28;20035;-39
2024/02/10 01:39:48;;;;;;;11.23;2.45;;;;;;;;;;5107319;28;20031;-39
2024/02/10 01:42:37;;;;;;;5.53;1.77;;;;;;;;;;5111046;28;20521;-39
2024/02/10 01:45:08;;;;;;;6.57;2.10;;;;;;;;;;5101430;28;20032;-39
2024/02/10 01:47:39;;;;;;;4.03;2.03;;;;;;;;;;5114223;27;20059;-39
2024/02/10 01:50:06;;;;;;;5.53;2.03;;;;;;;;;;5114112;28;20032;-39
2024/02/10 01:52:36;;;;;;;3.53;2.10;;;;;;;;;;5114258;28;20038;-39
2024/02/10 01:55:04;;;;;;;5.03;2.00;;;;;;;;;;5113893;28;20034;-38
2024/02/10 01:57:31;;;;;;;9.23;2.30;;;;;;;;;;5109617;27;20619;-39
2024/02/10 02:00:01;;;;;;;12.30;2.80;;;;;;;;;;5110455;28;20027;-39
2024/02/10 02:02:31;;;;;;;7.07;2.50;;;;;;;;;;5106826;28;20500;-38
2024/02/10 02:05:00;;;;;;;6.07;2.30;;;;;;;;;;5099403;28;20493;-39
2024/02/10 02:07:32;;;;;;;4.72;2.20;;;;;;;;;;5100589;28;20114;-39
2024/02/10 02:10:00;;;;;;;5.00;2.33;;;;;;;;;;5111025;28;20048;-39
2024/02/10 02:12:27;;;;;;;6.45;2.15;;;;;;;;;;5109927;28;20143;-39
2024/02/10 02:14:57;;;;;;;3.03;1.52;;;;;;;;;;5110738;28;20038;-39
2024/02/10 02:17:24;;;;;;;4.30;1.70;;;;;;;;;;5108141;28;20028;-39
2024/02/10 02:19:51;;;;;;;2.33;1.55;;;;;;;;;;5101025;28;20040;-39
2024/02/10 02:22:18;;;;;;;5.50;1.90;;;;;;;;;;5110129;28;20053;-40
2024/02/10 02:24:46;;;;;;;7.55;1.67;;;;;;;;;;5102364;28;20490;-39
2024/02/10 02:27:14;;;;;;;6.97;1.33;;;;;;;;;;5099653;28;20023;-39
2024/02/10 02:29:41;;;;;;;3.33;1.33;;;;;;;;;;5096733;28;20521;-40
2024/02/10 02:32:10;;;;;;;5.28;1.55;;;;;;;;;;5104923;28;20027;-39
2024/02/10 02:34:37;;;;;;;5.93;1.30;;;;;;;;;;5112740;28;20556;-39
2024/02/10 02:37:06;;;;;;;1.55;1.00;;;;;;;;;;5112921;27;20031;-40
2024/02/10 02:39:33;;;;;;;3.28;1.50;;;;;;;;;;5107375;28;20038;-39
2024/02/10 02:42:05;;;;;;;4.00;1.80;;;;;;;;;;5101302;28;20027;-39
2024/02/10 02:44:32;;;;;;;4.60;2.20;;;;;;;;;;5108002;28;20031;-39
2024/02/10 02:47:04;;;;;;;5.03;2.75;;;;;;;;;;5097815;28;20270;-38
2024/02/10 02:49:32;;;;;;;4.95;2.80;;;;;;;;;;5098116;28;20379;-42
2024/02/10 02:51:59;;;;;;;4.30;2.65;;;;;;;;;;5093563;28;20040;-39
2024/02/10 02:54:26;;;;;;;3.13;2.30;;;;;;;;;;5094391;28;20020;-39
2024/02/10 02:57:00;;;;;;;3.90;2.10;;;;;;;;;;5092854;28;20052;-39
2024/02/10 02:59:27;;;;;;;4.68;1.80;;;;;;;;;;5097072;28;20034;-39
2024/02/10 03:01:54;;;;;;;3.05;1.60;;;;;;;;;;5094544;28;20075;-39
2024/02/10 03:04:21;;;;;;;5.88;1.65;;;;;;;;;;5100115;28;20031;-38
2024/02/10 03:06:50;;;;;;;3.63;1.58;;;;;;;;;;5102654;28;20081;-38
2024/02/10 03:09:17;;;;;;;12.68;1.98;;;;;;;;;;5095820;28;20074;-39
2024/02/10 03:11:44;;;;;;;13.45;2.85;;;;;;;;;;5098277;28;20446;-38
2024/02/10 03:14:11;;;;;;;6.90;2.20;;;;;;;;;;5105283;28;20032;-38
2024/02/10 03:16:38;;;;;;;12.18;2.50;;;;;;;;;;5101566;28;20027;-40
2024/02/10 03:19:06;;;;;;;14.23;2.80;;;;;;;;;;5103535;28;20038;-41
2024/02/10 03:21:35;;;;;;;12.48;2.92;;;;;;;;;;5103813;28;20053;-39
2024/02/10 03:24:03;;;;;;;6.68;2.80;;;;;;;;;;5092680;28;20024;-39
2024/02/10 03:26:31;;;;;;;5.05;2.17;;;;;;;;;;5097535;28;20036;-39
2024/02/10 03:29:03;;;;;;;9.10;2.15;;;;;;;;;;5100159;28;20478;-39
2024/02/10 03:31:30;;;;;;;8.65;2.63;;;;;;;;;;5102578;28;20127;-40
2024/02/10 03:33:57;;;;;;;7.63;1.85;;;;;;;;;;5095945;28;20028;-39
2024/02/10 03:36:27;;;;;;;4.88;1.80;;;;;;;;;;5101542;28;20054;-38
2024/02/10 03:39:03;;;;;;;4.68;1.73;;;;;;;;;;5098659;28;20080;-40
2024/02/10 03:41:31;;;;;;;5.63;2.10;;;;;;;;;;5101678;28;20040;-40
2024/02/10 03:43:58;;;;;;;5.88;2.05;;;;;;;;;;5099377;28;20036;-39
2024/02/10 03:46:25;;;;;;;8.73;2.30;;;;;;;;;;5092800;28;20031;-40
2024/02/10 03:48:52;;;;;;;6.50;2.17;;;;;;;;;;5096643;28;20035;-40
2024/02/10 03:51:19;;;;;;;6.03;2.10;;;;;;;;;;5096106;28;20394;-39
2024/02/10 03:53:46;;;;;;;7.30;1.98;;;;;;;;;;5096992;28;20032;-40
2024/02/10 03:56:13;;;;;;;8.50;2.40;;;;;;;;;;5091178;28;20035;-38
2024/02/10 03:58:43;;;;;;;4.57;1.75;;;;;;;;;;5093397;28;20706;-39
2024/02/10 04:01:13;;;;;;;8.57;2.20;;;;;;;;;;5100812;28;20027;-39
2024/02/10 04:03:46;;;;;;;7.03;2.00;;;;;;;;;;5101258;28;20997;-40
2024/02/10 04:06:17;;;;;;;5.55;1.75;;;;;;;;;;5099984;28;20035;-39
2024/02/10 04:08:47;;;;;;;7.10;1.70;;;;;;;;;;5103225;28;20097;-38
2024/02/10 04:11:16;;;;;;;6.88;2.13;;;;;;;;;;5094874;28;20087;-38
2024/02/10 04:13:44;;;;;;;4.85;1.80;;;;;;;;;;5100533;28;20114;-38
2024/02/10 04:16:12;;;;;;;4.80;1.85;;;;;;;;;;5099777;28;20123;-38
2024/02/10 04:18:42;;;;;;;9.00;1.83;;;;;;;;;;5097299;28;20027;-38
2024/02/10 04:21:10;;;;;;;5.00;1.80;;;;;;;;;;5099404;28;20086;-38
2024/02/10 04:23:39;;;;;;;4.78;1.67;;;;;;;;;;5111103;28;20481;-39
2024/02/10 04:26:07;;;;;;;4.45;1.77;;;;;;;;;;5097668;28;20478;-39
2024/02/10 04:28:34;;;;;;;9.32;1.48;;;;;;;;;;5086307;28;20019;-38
2024/02/10 04:31:01;;;;;;;5.60;2.00;;;;;;;;;;5099906;28;20027;-38
2024/02/10 04:33:28;;;;;;;8.10;1.83;;;;;;;;;;5100824;28;20557;-38
2024/02/10 04:35:55;;;;;;;2.75;1.50;;;;;;;;;;5099928;28;20032;-39
2024/02/10 04:38:25;;;;;;;5.53;1.77;;;;;;;;;;5102817;28;20570;-38
2024/02/10 04:40:52;;;;;;;3.78;1.73;;;;;;;;;;5099010;28;20042;-40
2024/02/10 04:43:19;;;;;;;4.30;1.83;;;;;;;;;;5091242;28;20031;-39
2024/02/10 04:45:48;;;;;;;3.28;1.77;;;;;;;;;;5110387;28;20092;-38
2024/02/10 04:48:19;;;;;;;2.15;1.50;;;;;;;;;;5111618;28;20452;-38
2024/02/10 04:50:46;;;;;;;5.20;1.75;;;;;;;;;;5111567;28;20023;-38
2024/02/10 04:53:14;;;;;;;2.42;1.42;;;;;;;;;;5095388;28;20063;-38
2024/02/10 04:55:41;;;;;;;3.88;1.60;;;;;;;;;;5091352;28;20086;-39
2024/02/10 04:58:12;;;;;;;4.88;1.17;;;;;;;;;;5105433;28;20028;-39
2024/02/10 05:00:39;;;;;;;3.63;1.10;;;;;;;;;;5110513;28;20015;-39
2024/02/10 05:03:06;;;;;;;3.97;1.40;;;;;;;;;;5091302;28;20028;-39
2024/02/10 05:05:33;;;;;;;3.53;1.10;;;;;;;;;;5101078;28;20023;-38
2024/02/10 05:08:00;;;;;;;4.38;1.20;;;;;;;;;;5109909;28;20432;-38
2024/02/10 05:10:27;;;;;;;4.35;1.10;;;;;;;;;;5111308;28;20043;-39
2024/02/10 05:12:57;;;;;;;1.65;1.00;;;;;;;;;;5092062;28;20036;-39
2024/02/10 05:15:25;;;;;;;3.63;1.33;;;;;;;;;;5090923;28;20021;-39
2024/02/10 05:17:53;;;;;;;3.33;1.15;;;;;;;;;;5091004;28;20077;-39
2024/02/10 05:20:21;;;;;;;2.25;1.20;;;;;;;;;;5091601;28;20081;-38
2024/02/10 05:22:49;;;;;;;1.77;0.90;;;;;;;;;;5094675;28;20479;-39
2024/02/10 05:25:20;;;;;;;2.45;0.80;;;;;;;;;;5094520;28;20024;-38
2024/02/10 05:27:47;;;;;;;2.50;1.10;;;;;;;;;;5094426;28;20024;-39
2024/02/10 05:30:19;;;;;;;3.15;1.00;;;;;;;;;;5094569;28;20028;-39
2024/02/10 05:32:46;;;;;;;1.10;0.57;;;;;;;;;;5094265;28;20040;-39
2024/02/10 05:35:22;;;;;;;3.33;0.68;;;;;;;;;;5094086;28;20032;-38
2024/02/10 05:37:54;;;;;;;1.33;0.70;;;;;;;;;;5094471;28;20032;-37
2024/02/10 05:40:21;;;;;;;1.40;0.70;;;;;;;;;;5094246;28;20056;-37
2024/02/10 05:42:52;;;;;;;2.25;0.63;;;;;;;;;;5094449;28;20402;-37
2024/02/10 05:45:21;;;;;;;1.13;0.65;;;;;;;;;;5110440;28;20129;-38
2024/02/10 05:47:51;;;;;;;1.83;1.02;;;;;;;;;;5105372;28;20494;-37
2024/02/10 05:50:24;;;;;;;8.45;1.50;;;;;;;;;;5102665;28;20034;-38
2024/02/10 05:52:53;;;;;;;6.78;1.50;;;;;;;;;;5102802;27;20040;-37
2024/02/10 05:55:26;;;;;;;3.38;1.50;;;;;;;;;;5094074;28;20035;-37
2024/02/10 05:58:06;;;;;;;3.50;1.40;;;;;;;;;;5094238;28;20024;-37
2024/02/10 06:00:38;;;;;;;5.75;1.65;;;;;;;;;;5111030;28;20110;-37
2024/02/10 06:03:05;;;;;;;3.05;1.52;;;;;;;;;;5107543;28;20024;-37
2024/02/10 06:05:32;;;;;;;3.45;1.30;;;;;;;;;;5103403;28;20032;-37
2024/02/10 06:08:00;;;;;;;4.68;1.42;;;;;;;;;;5093934;28;20024;-37
2024/02/10 06:10:27;;;;;;;5.00;1.30;;;;;;;;;;5093624;28;20524;-37
2024/02/10 06:12:55;;;;;;;4.82;1.23;;;;;;;;;;5093765;28;20390;-37
2024/02/10 06:15:23;;;;;;;4.55;1.40;;;;;;;;;;5093809;28;20060;-37
2024/02/10 06:17:55;;;;;;;2.30;1.23;;;;;;;;;;5106038;28;20405;-37
2024/02/10 06:20:23;;;;;;;5.65;1.35;;;;;;;;;;5111681;28;20031;-37
2024/02/10 06:22:52;;;;;;;8.27;1.70;;;;;;;;;;5114136;28;20038;-37
2024/02/10 06:25:24;;;;;;;3.05;1.30;;;;;;;;;;5113767;28;20043;-37
2024/02/10 06:27:54;;;;;;;3.00;1.10;;;;;;;;;;5113912;28;20034;-37
2024/02/10 06:30:22;;;;;;;3.33;1.17;;;;;;;;;;5113844;28;20031;-37
2024/02/10 06:32:50;;;;;;;2.40;1.25;;;;;;;;;;5113564;28;20035;-37
2024/02/10 06:35:19;;;;;;;2.10;1.08;;;;;;;;;;5113676;28;20035;-37
2024/02/10 06:37:49;;;;;;;4.38;1.10;;;;;;;;;;5113761;28;20107;-37
2024/02/10 06:40:17;;;;;;;3.75;1.35;;;;;;;;;;5113775;28;20378;-37
2024/02/10 06:42:48;;;;;;;3.80;1.30;;;;;;;;;;5113563;28;20560;-37
2024/02/10 06:45:16;;;;;;;2.80;1.20;;;;;;;;;;5113497;28;20063;-37
2024/02/10 06:47:46;;;;;;;4.45;1.25;;;;;;;;;;5113597;28;20591;-37
2024/02/10 06:50:14;;;;;;;2.35;1.35;;;;;;;;;;5113597;28;20035;-37
2024/02/10 06:52:42;;;;;;;3.70;1.20;;;;;;;;;;5113297;28;20048;-37
2024/02/10 06:55:12;;;;;;;2.35;1.08;;;;;;;;;;5113239;28;20031;-37
2024/02/10 06:57:41;;;;;;;2.85;1.15;;;;;;;;;;5113417;28;20028;-37
2024/02/10 07:00:14;;;;;;;4.13;1.17;;;;;;;;;;5113328;28;20038;-37
2024/02/10 07:02:42;;;;;;;4.10;1.30;;;;;;;;;;5112840;28;20081;-37
2024/02/10 07:05:14;;;;;;;3.55;1.23;;;;;;;;;;5095781;28;20118;-37
2024/02/10 07:07:41;;;;;;;2.13;1.00;;;;;;;;;;5092821;28;20028;-37
2024/02/10 07:10:15;;;;;;;3.47;1.48;;;;;;;;;;5092500;28;20290;-37
2024/02/10 07:12:46;;;;;;;2.80;1.42;;;;;;;;;;5092610;28;20206;-37
2024/02/10 07:15:17;;;;;;;4.60;1.40;;;;;;;;;;5092637;28;20016;-37
2024/02/10 07:17:49;;;;;;;5.32;1.27;;;;;;;;;;5092859;28;20043;-37
2024/02/10 07:20:25;;;;;;;4.82;1.30;;;;;;;;;;5092641;28;20032;-37
2024/02/10 07:23:00;;;;;;;2.78;1.20;;;;;;;;;;5092650;28;20169;-37
2024/02/10 07:25:27;;;;;;;3.05;1.38;;;;;;;;;;5092442;28;20128;-37
2024/02/10 07:28:00;;;;;;;4.82;1.27;;;;;;;;;;5092636;28;20051;-37
2024/02/10 07:30:28;;;;;;;3.05;1.08;;;;;;;;;;5092466;28;20065;-37
2024/02/10 07:33:03;;;;;;;3.63;1.38;;;;;;;;;;5092343;28;20452;-37
2024/02/10 07:35:33;;;;;;;4.70;1.13;;;;;;;;;;5092265;28;20161;-37
2024/02/10 07:38:02;;;;;;;4.45;1.50;;;;;;;;;;5092376;28;20028;-37
2024/02/10 07:40:29;;;;;;;5.57;1.77;;;;;;;;;;5092459;28;20040;-37
2024/02/10 07:42:56;;;;;;;2.30;1.38;;;;;;;;;;5091658;28;20476;-37
2024/02/10 07:45:23;;;;;;;3.53;1.45;;;;;;;;;;5092211;28;20024;-37
2024/02/10 07:47:51;;;;;;;6.40;1.40;;;;;;;;;;5092182;28;20431;-37
2024/02/10 07:50:18;;;;;;;3.83;1.23;;;;;;;;;;5092249;28;20023;-37
2024/02/10 07:52:49;;;;;;;5.18;1.88;;;;;;;;;;5092032;28;20062;-37
2024/02/10 07:55:16;;;;;;;2.60;1.13;;;;;;;;;;5091888;28;20035;-37
2024/02/10 07:57:43;;;;;;;2.92;1.10;;;;;;;;;;5092048;28;20516;-37
2024/02/10 08:00:10;;;;;;;4.63;1.10;;;;;;;;;;5091904;28;20107;-37
2024/02/10 08:02:37;;;;;;;6.68;1.00;;;;;;;;;;5091879;28;20071;-37
2024/02/10 08:05:04;;;;;;;2.75;0.80;;;;;;;;;;5091855;28;20098;-37
2024/02/10 08:07:32;;;;;;;2.10;0.82;;;;;;;;;;5091886;28;20016;-37
2024/02/10 08:10:00;;;;;;;2.92;0.80;;;;;;;;;;5091745;28;20028;-37
2024/02/10 08:12:29;;;;;;;7.10;0.80;;;;;;;;;;5091614;28;20051;-37
2024/02/10 08:15:00;;;;;;;2.92;1.00;;;;;;;;;;5091801;28;20063;-37
2024/02/10 08:17:30;;;;;;;4.80;0.90;;;;;;;;;;5091622;28;20500;-37
2024/02/10 08:19:57;;;;;;;3.97;0.90;;;;;;;;;;5090402;28;20036;-37
2024/02/10 08:22:30;;;;;;;3.70;0.80;;;;;;;;;;5091646;28;20486;-37
2024/02/10 08:24:58;;;;;;;3.05;0.70;;;;;;;;;;5091536;28;20111;-37
2024/02/10 08:27:26;;;;;;;3.72;0.73;;;;;;;;;;5091622;28;20036;-37
2024/02/10 08:29:56;;;;;;;1.30;0.60;;;;;;;;;;5091648;28;20048;-37
2024/02/10 08:32:23;;;;;;;2.75;0.50;;;;;;;;;;5091570;28;20520;-37
2024/02/10 08:34:51;;;;;;;1.42;0.55;;;;;;;;;;5091608;28;20032;-37
2024/02/10 08:37:18;;;;;;;2.97;0.57;;;;;;;;;;5091536;28;20036;-37
2024/02/10 08:39:46;;;;;;;1.80;0.50;;;;;;;;;;5091600;28;20055;-37
2024/02/10 08:42:13;;;;;;;1.58;0.77;;;;;;;;;;5091522;28;20036;-37
2024/02/10 08:44:40;;;;;;;4.07;0.90;;;;;;;;;;5091406;28;20035;-37
2024/02/10 08:47:08;;;;;;;2.40;0.63;;;;;;;;;;5091531;28;20063;-37
2024/02/10 08:49:35;;;;;;;2.17;0.70;;;;;;;;;;5091367;28;20023;-37
2024/02/10 08:52:06;;;;;;;1.50;0.60;;;;;;;;;;5091348;28;20043;-37
2024/02/10 08:54:35;;;;;;;1.48;0.50;;;;;;;;;;5092289;28;20464;-37
2024/02/10 08:57:02;;;;;;;2.42;0.70;;;;;;;;;;5095324;28;20111;-37
2024/02/10 08:59:33;;;;;;;3.47;0.60;;;;;;;;;;5095633;28;20024;-37
2024/02/10 09:02:04;;;;;;;2.45;0.70;;;;;;;;;;5095233;28;20036;-37
2024/02/10 09:04:34;;;;;;;3.17;0.70;;;;;;;;;;5095170;28;20044;-37
2024/02/10 09:07:04;;;;;;;2.70;0.70;;;;;;;;;;5095448;28;20032;-37
2024/02/10 09:09:31;;;;;;;1.15;0.45;;;;;;;;;;5095174;28;20085;-37
2024/02/10 09:11:58;;;;;;;3.78;0.80;;;;;;;;;;5094917;28;20093;-37
2024/02/10 09:14:25;;;;;;;4.05;0.55;;;;;;;;;;5095119;28;20028;-37
2024/02/10 09:16:52;;;;;;;3.67;0.90;;;;;;;;;;5094957;28;20057;-37
2024/02/10 09:19:20;;;;;;;4.30;0.70;;;;;;;;;;5094907;28;20146;-37
2024/02/10 09:21:57;;;;;;;3.38;0.82;;;;;;;;;;5094924;28;20425;-37
2024/02/10 09:24:25;;;;;;;1.75;0.60;;;;;;;;;;5094879;28;20031;-37
2024/02/10 09:26:56;;;;;;;3.65;0.70;;;;;;;;;;5094682;28;20032;-37
2024/02/10 09:29:23;;;;;;;3.25;0.70;;;;;;;;;;5094801;28;20028;-37
2024/02/10 09:31:56;;;;;;;1.90;0.50;;;;;;;;;;5094662;28;20397;-37
2024/02/10 09:37:39;;;;;;;2.45;0.70;;;;;;;;;;5096498;28;20069;-37
2024/02/10 09:43:22;;;;;;;2.10;0.68;;;;;;;;;;5096409;28;20543;-37
2024/02/10 09:45:53;;;;;;;2.75;0.80;;;;;;;;;;5096264;28;20074;-37
2024/02/10 09:48:20;;;;;;;4.13;0.80;;;;;;;;;;5093625;28;20040;-37
2024/02/10 09:50:47;;;;;;;2.58;1.05;;;;;;;;;;5094338;28;20478;-37
2024/02/10 09:53:14;;;;;;;1.90;0.68;;;;;;;;;;5107060;28;20059;-37
2024/02/10 09:55:42;;;;;;;2.78;0.50;;;;;;;;;;5114567;28;20432;-37
2024/02/10 09:58:09;;;;;;;2.80;0.65;;;;;;;;;;5114548;28;20119;-37
2024/02/10 10:00:37;;;;;;;1.20;0.70;;;;;;;;;;5114508;28;20761;-37
2024/02/10 10:03:04;;;;;;;3.10;0.90;;;;;;;;;;5114471;28;20040;-37
2024/02/10 10:05:42;;;;;;;2.97;0.60;;;;;;;;;;5114168;28;20049;-37
2024/02/10 10:08:10;;;;;;;2.15;0.50;;;;;;;;;;5114446;28;20036;-37
2024/02/10 10:10:37;;;;;;;0.88;0.60;;;;;;;;;;5114080;28;20028;-37
2024/02/10 10:13:09;;;;;;;3.92;0.77;;;;;;;;;;5114291;27;20118;-37
2024/02/10 10:15:40;;;;;;;2.03;0.80;;;;;;;;;;5114104;28;20070;-37
2024/02/10 10:18:17;;;;;;;4.22;1.10;;;;;;;;;;5114265;28;20020;-37
2024/02/10 10:20:47;;;;;;;3.53;1.38;;;;;;;;;;5114119;28;20028;-37
2024/02/10 10:23:15;;;;;;;3.60;1.60;;;;;;;;;;5114085;28;20483;-37
2024/02/10 10:25:43;;;;;;;7.70;1.48;;;;;;;;;;5113919;28;20066;-37
2024/02/10 10:28:16;;;;;;;4.20;1.42;;;;;;;;;;5113976;28;20213;-37
2024/02/10 10:30:43;;;;;;;2.60;1.25;;;;;;;;;;5114025;28;20477;-37
2024/02/10 10:33:11;;;;;;;4.57;1.38;;;;;;;;;;5113832;28;20538;-37
2024/02/10 10:35:44;;;;;;;3.67;1.20;;;;;;;;;;5113808;28;20023;-37
2024/02/10 10:38:16;;;;;;;3.22;1.77;;;;;;;;;;5114026;28;20039;-37
2024/02/10 10:40:44;;;;;;;3.83;1.75;;;;;;;;;;5113740;28;20464;-37
2024/02/10 10:43:11;;;;;;;5.75;1.40;;;;;;;;;;5113700;28;20035;-37
2024/02/10 10:45:39;;;;;;;3.42;1.10;;;;;;;;;;5113611;28;20047;-37
2024/02/10 10:48:06;;;;;;;2.83;1.20;;;;;;;;;;5113715;28;20027;-37
2024/02/10 10:50:34;;;;;;;3.10;1.17;;;;;;;;;;5113641;28;20051;-37
2024/02/10 10:53:10;;;;;;;2.55;1.20;;;;;;;;;;5102445;28;20537;-37
2024/02/10 10:55:48;;;;;;;5.50;1.70;;;;;;;;;;5093040;28;20024;-37
2024/02/10 10:58:24;;;;;;;1.77;1.00;;;;;;;;;;5093036;28;20482;-37
2024/02/10 11:00:52;;;;;;;1.83;1.10;;;;;;;;;;5091845;28;20501;-37
2024/02/10 11:03:21;;;;;;;3.60;1.58;;;;;;;;;;5093026;28;20032;-37
2024/02/10 11:05:51;;;;;;;4.90;1.40;;;;;;;;;;5092907;28;20534;-37
2024/02/10 11:08:27;;;;;;;3.08;1.48;;;;;;;;;;5092873;28;20509;-37
2024/02/10 11:11:01;;;;;;;3.80;1.73;;;;;;;;;;5092701;28;20763;-37
2024/02/10 11:13:29;;;;;;;3.90;1.90;;;;;;;;;;5092824;28;20048;-37
2024/02/10 11:16:05;;;;;;;4.90;1.98;;;;;;;;;;5092631;28;20024;-37
2024/02/10 11:18:37;;;;;;;3.45;2.17;;;;;;;;;;5091651;28;20020;-37
2024/02/10 11:21:26;;;;;;;3.22;2.13;;;;;;;;;;5092637;28;20028;-37
2024/02/10 11:23:58;;;;;;;4.78;2.80;;;;;;;;;;5092607;28;20036;-37
2024/02/10 11:26:26;;;;;;;3.87;2.30;;;;;;;;;;5092342;28;20081;-37
2024/02/10 11:29:06;;;;;;;3.42;2.50;;;;;;;;;;5092474;28;20028;-37
2024/02/10 11:31:33;;;;;;;5.03;2.85;;;;;;;;;;5092378;28;20036;-37
2024/02/10 11:34:14;;;;;;;5.13;2.88;;;;;;;;;;5092487;28;20557;-37
2024/02/10 11:36:53;;;;;;;4.88;2.53;;;;;;;;;;5092144;28;20035;-37
2024/02/10 11:39:22;;;;;;;5.30;2.75;;;;;;;;;;5092180;28;20055;-37
2024/02/10 11:41:50;;;;;;;3.65;2.38;;;;;;;;;;5092251;28;20448;-37
2024/02/10 11:44:17;;;;;;;3.42;2.20;;;;;;;;;;5090812;28;20456;-37
2024/02/10 11:46:45;;;;;;;5.28;2.63;;;;;;;;;;5092160;28;20055;-37
2024/02/10 11:49:12;;;;;;;4.07;2.83;;;;;;;;;;5092094;28;20032;-37
2024/02/10 11:51:39;;;;;;;5.55;2.60;;;;;;;;;;5092001;28;20040;-37
2024/02/10 11:54:06;;;;;;;3.90;2.40;;;;;;;;;;5092124;28;20020;-37
2024/02/10 11:56:33;;;;;;;3.13;1.80;;;;;;;;;;5091936;28;20035;-37
2024/02/10 11:59:01;;;;;;;2.47;1.73;;;;;;;;;;5092030;28;20042;-37
2024/02/10 12:01:28;;;;;;;2.92;1.92;;;;;;;;;;5091901;28;20435;-37
2024/02/10 12:03:58;;;;;;;2.83;2.03;;;;;;;;;;5091873;28;20021;-37
2024/02/10 12:06:25;;;;;;;3.85;2.38;;;;;;;;;;5091722;28;20047;-37
2024/02/10 12:08:52;;;;;;;4.32;2.10;;;;;;;;;;5091882;28;20394;-37
2024/02/10 12:11:24;;;;;;;3.30;2.25;;;;;;;;;;5091592;28;20054;-37
2024/02/10 12:13:51;;;;;;;3.75;2.30;;;;;;;;;;5091601;28;20036;-37
2024/02/10 12:16:18;;;;;;;4.35;2.00;;;;;;;;;;5091822;28;20024;-37
2024/02/10 12:18:48;;;;;;;3.03;2.08;;;;;;;;;;5091901;28;20020;-37
2024/02/10 12:21:24;;;;;;;3.80;2.22;;;;;;;;;;5105175;28;20460;-36
2024/02/10 12:23:52;;;;;;;5.10;2.20;;;;;;;;;;5091453;28;20028;-36
2024/02/10 12:26:19;;;;;;;3.42;2.33;;;;;;;;;;5091592;28;20401;-37
2024/02/10 12:28:51;;;;;;;2.90;1.80;;;;;;;;;;5091634;28;20428;-36
2024/02/10 12:31:20;;;;;;;6.57;1.80;;;;;;;;;;5098334;28;20046;-37
2024/02/10 12:33:50;;;;;;;2.83;1.50;;;;;;;;;;5099095;28;20370;-37
2024/02/10 12:36:20;;;;;;;4.63;1.38;;;;;;;;;;5099830;28;20039;-37
2024/02/10 12:38:47;;;;;;;1.98;1.25;;;;;;;;;;5094877;28;20043;-36
2024/02/10 12:41:17;;;;;;;1.40;1.08;;;;;;;;;;5100063;28;20027;-37
2024/02/10 12:43:44;;;;;;;3.47;1.20;;;;;;;;;;5113750;28;20028;-36
2024/02/10 12:46:14;;;;;;;3.53;1.10;;;;;;;;;;5113286;28;20042;-36
2024/02/10 12:48:41;;;;;;;4.68;0.95;;;;;;;;;;5113381;28;20090;-36
2024/02/10 12:51:08;;;;;;;3.28;0.90;;;;;;;;;;5112995;28;20035;-36
2024/02/10 12:53:35;;;;;;;6.78;1.30;;;;;;;;;;5111488;28;20028;-36
2024/02/10 12:56:03;;;;;;;1.98;0.90;;;;;;;;;;5103266;28;20032;-37
2024/02/10 12:58:30;;;;;;;2.00;0.90;;;;;;;;;;5113152;28;20396;-36
2024/02/10 13:00:58;;;;;;;2.13;0.90;;;;;;;;;;5113489;28;20110;-36
2024/02/10 13:03:25;;;;;;;4.00;0.60;;;;;;;;;;5103510;28;20068;-36
2024/02/10 13:05:54;;;;;;;1.67;0.90;;;;;;;;;;5104121;28;20111;-37
2024/02/10 13:08:21;;;;;;;3.60;0.80;;;;;;;;;;5103180;28;20035;-36
2024/02/10 13:10:48;;;;;;;3.20;1.00;;;;;;;;;;5100567;28;20028;-37
2024/02/10 13:13:15;;;;;;;3.15;0.98;;;;;;;;;;5107200;28;20385;-36
2024/02/10 13:15:45;;;;;;;8.18;1.20;;;;;;;;;;5105494;28;20565;-36
2024/02/10 13:18:13;;;;;;;5.10;0.90;;;;;;;;;;5103945;28;20028;-36
2024/02/10 13:20:40;;;;;;;1.88;0.90;;;;;;;;;;5100197;28;20030;-36
2024/02/10 13:23:07;;;;;;;2.03;0.75;;;;;;;;;;5105016;28;20032;-37
2024/02/10 13:25:34;;;;;;;2.85;1.15;;;;;;;;;;5104893;28;20070;-36
2024/02/10 13:28:01;;;;;;;2.50;0.80;;;;;;;;;;5103912;27;20027;-36
2024/02/10 13:30:28;;;;;;;1.60;1.00;;;;;;;;;;5096829;28;20082;-36
2024/02/10 13:32:58;;;;;;;3.67;0.57;;;;;;;;;;5094623;28;20088;-36
2024/02/10 13:35:25;;;;;;;2.42;0.80;;;;;;;;;;5094581;28;20750;-36
2024/02/10 14:12:52;;;;;;;3.00;0.70;;;;;;;;;;5114031;27;20077;-36
2024/02/10 14:15:29;;;;;;;3.50;0.80;;;;;;;;;;5114117;28;20088;-36
2024/02/10 14:17:57;;;;;;;2.72;0.60;;;;;;;;;;5114194;28;20089;-37
2024/02/10 14:20:29;;;;;;;2.17;0.63;;;;;;;;;;5114237;27;20031;-36
2024/02/10 14:22:58;;;;;;;0.85;0.52;;;;;;;;;;5114203;28;20036;-37
2024/02/10 14:25:32;;;;;;;2.58;0.60;;;;;;;;;;5114026;28;20106;-36
2024/02/10 14:28:52;;;;;;;0.80;0.60;;;;;;;;;;5114059;28;20031;-36
2024/02/10 14:30:51;;;;;;;;;;;;;;;;;;5106719;28;20084;-36
2024/02/10 14:33:22;;;;;;;1.27;0.70;;;;;;;;;;5113958;28;19985;-36
2024/02/10 14:35:52;;;;;;;1.88;0.80;;;;;;;;;;5113822;28;20439;-36
2024/02/10 14:41:19;;;;;;;2.60;0.70;;;;;;;;;;5090145;28;20490;-36
2024/02/10 14:43:46;;;;;;;1.35;0.68;;;;;;;;;;5112385;28;20030;-37
2024/02/10 14:46:13;;;;;;;0.88;0.60;;;;;;;;;;5113604;28;20081;-36
2024/02/10 14:48:44;;;;;;;1.48;0.60;;;;;;;;;;5113655;28;20024;-37
2024/02/10 14:51:12;;;;;;;2.83;0.60;;;;;;;;;;5113448;28;20038;-37
2024/02/10 14:53:39;;;;;;;1.42;0.65;;;;;;;;;;5113342;28;20031;-36
2024/02/10 14:56:13;;;;;;;0.80;0.57;;;;;;;;;;5113376;28;20031;-36
2024/02/10 14:58:43;;;;;;;0.73;0.60;;;;;;;;;;5113555;28;20107;-37
2024/02/10 15:01:11;;;;;;;1.00;0.63;;;;;;;;;;5113446;28;20016;-37
2024/02/10 15:03:38;;;;;;;0.77;0.50;;;;;;;;;;5113312;28;20049;-37
2024/02/10 15:06:10;;;;;;;0.90;0.50;;;;;;;;;;5113202;28;20036;-37
2024/02/10 15:08:39;;;;;;;0.63;0.60;;;;;;;;;;5113223;27;20046;-36
2024/02/10 15:11:08;;;;;;;3.28;0.60;;;;;;;;;;5112977;28;20142;-36
2024/02/10 15:13:35;;;;;;;2.75;0.60;;;;;;;;;;5113239;28;20118;-37
2024/02/10 15:16:02;;;;;;;0.75;0.50;;;;;;;;;;5113130;27;20081;-37
2024/02/10 15:18:29;;;;;;;1.17;0.50;;;;;;;;;;5112924;28;20020;-37
2024/02/10 15:20:56;;;;;;;1.60;0.65;;;;;;;;;;5112963;28;20041;-37
2024/02/10 15:23:23;;;;;;;3.95;0.57;;;;;;;;;;5113004;28;20473;-37
2024/02/10 15:25:50;;;;;;;1.50;0.52;;;;;;;;;;5112846;28;20088;-36
2024/02/10 15:28:18;;;;;;;1.40;0.60;;;;;;;;;;5111488;28;20039;-37
2024/02/10 15:30:49;;;;;;;1.15;0.60;;;;;;;;;;5112753;28;20051;-36
2024/02/10 15:33:18;;;;;;;1.30;0.60;;;;;;;;;;5112633;28;20031;-37
2024/02/10 15:35:52;;;;;;;1.25;0.60;;;;;;;;;;5112604;28;20038;-36
2024/02/10 15:38:22;;;;;;;1.08;0.60;;;;;;;;;;5112776;28;20027;-37
2024/02/10 15:40:50;;;;;;;1.45;0.60;;;;;;;;;;5112667;28;20075;-37